Airfield :
LOGIN :

Register | Disclaimer

   EN    FR    IT 

 










Legend :    VFR   Marginal VFR   IFR   Intensive IFR   Very Intensive IFR
Visi :
Ceiling :
>= 8 km
>= 3000ft
5 to 8 km
1000 to 3000 ft
1500m to 5 km
500 to 1000 ft
800 to 1500m
200 to 500 ft
< 800m
< 200 ft
Symbols :   Thunderstorms  Fog  Heavy snow  Heavy precipitations  Wind > 20 kt
SIGMETs :     Misc.  Thunderstorms  Icing  Turbulence  Mountain Waves  Volcanic Ashes






- Airport Elevation : 239 ft
- IATA code : VRN


LIPX - Villafranca Int. Verona

CURRENT METAR :
  • 250750Z 05006KT 9999 FEW030 BKN050 23/17 Q1012

EXPIRED METARs :
  • 250720Z 04004KT 010V080 9999 FEW030 SCT050 23/18 Q1012
  • 250650Z 02005KT 9999 FEW030 BKN050 22/18 Q1012
  • 250620Z 35005KT 9999 FEW030 BKN050 21/18 Q1012
  • 250550Z 32005KT 9999 FEW030 BKN050 20/19 Q1012 RETS
  • 250520Z 33003KT 8000 -TSRA FEW030CB BKN050 19/19 Q1012
  • 250450Z 34008KT 330V040 7000 -RA FEW020 BKN060 19/18 Q1012 RETSRA
  • 250420Z 36011KT 4000 -DZ SCT015 BKN055 19/19 Q1012 RETSRA
  • 250350Z 36013KT 3000 -TSRA FEW011CB BKN050 18/18 Q1012 RERA
  • 250320Z 36012KT 3000 -TSRA FEW003CB BKN060 19/19 Q1012 RERA

TAF TAF LIPX
Valid from the 25 at 06:00 until the 26 at 06:00 UTC


250500Z 2506/2606 VRB05KT 9999 SCT015 BKN060
TEMPO 2506/2516 4000 TSRA
BECMG 2510/2512 10012KT
BECMG 2516/2518 VRB05KT



MET'MAP, your aeronautical weather chart ! - Copyright ORBIFLY December 2007 - Disclaimer

ORBIFLY MET'MAP TEAM :

Programming & Development : Alexandra Zaïnal
Original concept : Baudouin d'Aumeries
Technical & hardware support : Manuel Goepfert
Assistance : Marc-Olivier Méhu




SOURCES & CREDITS :

   NOAA